Aérodrome de Figeac - Livernon

METAR LFSL TAF LFSL
1 °C
°C
-
°C
8m
Edad
23:37:44
LT
22:37
UTC
0 ft

1.000

2.000

3.000

4.000

5.000

VFR
<?= Yii::t('app', 'Wind direction') ?> <?= Yii::t('app', 'of'); ?>
040°
08:11
Amanecer
87%
Humedad
Cizalladura del viento
Cerrado/Nieve
Alcance visual RWY
Estado de la RWY
Visibilidad vert.
Visibilidad mínima
CAVOK
Tendencia
Corrección
Informe especial
1034 hPa
QNH
METAR LFSL 032230Z AUTO 04001KT CAVOK 01/M01 Q1034
Despejado
1 kt
1 kt
23:00
VFR
3 kt
00:00
VFR
3 kt
01:00
VFR
3 kt
02:00
VFR
3 kt
03:00
VFR
3 kt
10 km+
Visibilidad
No
Cielo nuboso
1 kt
Viento
metar-taf.com/LFCF

Metar-Taf.com

Decodificador visual

Nosotros y terceros seguimos tu comportamiento en Internet en nuestro sitio web con cookies. Si continúas, asumimos que estás de acuerdo con nuestra Política de cookies.